createdAt,value
2023-06-01T00:02:01.978Z,14.04
2023-06-01T00:04:28.406Z,14.08
2023-06-01T00:06:54.842Z,13.98
2023-06-01T00:09:21.326Z,13.95
2023-06-01T00:11:47.773Z,13.96
2023-06-01T00:14:14.309Z,14.02
2023-06-01T00:16:40.773Z,14.01
2023-06-01T00:19:07.801Z,13.99
2023-06-01T00:21:36.568Z,14.06
2023-06-01T00:24:03.772Z,14.09
2023-06-01T00:26:32.882Z,14.13
2023-06-01T00:29:00.440Z,14.08
2023-06-01T00:31:27.619Z,13.98
2023-06-01T00:33:54.536Z,13.88
2023-06-01T00:36:21.468Z,13.88
2023-06-01T00:38:47.799Z,13.89
2023-06-01T00:41:14.393Z,13.94
2023-06-01T00:43:41.070Z,13.85
2023-06-01T00:46:07.858Z,13.84
2023-06-01T00:48:35.540Z,13.86
2023-06-01T00:51:02.252Z,13.74
2023-06-01T00:53:28.841Z,13.67
2023-06-01T00:55:55.722Z,13.70
2023-06-01T00:58:22.600Z,13.75
2023-06-01T01:00:49.541Z,13.80
2023-06-01T01:03:17.171Z,13.75
2023-06-01T01:05:43.963Z,13.82
2023-06-01T01:08:32.094Z,13.81
2023-06-01T01:11:09.794Z,13.70
2023-06-01T01:13:48.390Z,13.64
2023-06-01T01:16:31.416Z,13.59
2023-06-01T01:19:26.904Z,13.64
2023-06-01T01:22:35.423Z,13.61
2023-06-01T01:25:22.249Z,13.52
2023-06-01T01:28:11.135Z,13.44
2023-06-01T01:30:38.922Z,13.43
2023-06-01T01:33:07.034Z,13.40
2023-06-01T01:35:34.478Z,13.51
2023-06-01T01:38:00.849Z,13.48
2023-06-01T01:40:27.338Z,13.50
2023-06-01T01:42:54.810Z,13.39
2023-06-01T01:45:22.029Z,13.36
2023-06-01T01:48:06.516Z,13.26
2023-06-01T01:50:53.158Z,13.32
2023-06-01T01:53:20.847Z,13.36
2023-06-01T01:55:49.772Z,13.44
2023-06-01T01:58:16.760Z,13.40
2023-06-01T02:00:44.528Z,13.36
2023-06-01T02:03:15.982Z,13.37
2023-06-01T02:05:42.542Z,13.38
2023-06-01T02:08:09.054Z,13.42
2023-06-01T02:10:35.595Z,13.37
2023-06-01T02:13:01.943Z,13.31
2023-06-01T02:15:28.477Z,13.32
2023-06-01T02:17:54.921Z,13.14
2023-06-01T02:20:21.523Z,12.96
2023-06-01T02:22:47.936Z,12.89
2023-06-01T02:25:14.420Z,12.88
2023-06-01T02:27:40.802Z,12.89
2023-06-01T02:30:08.685Z,12.81
2023-06-01T02:32:36.045Z,12.87
2023-06-01T02:35:02.522Z,12.91
2023-06-01T02:37:28.947Z,12.91
2023-06-01T02:39:55.469Z,12.91
2023-06-01T02:42:21.830Z,12.90
2023-06-01T02:44:48.339Z,12.92
2023-06-01T02:47:14.761Z,12.96
2023-06-01T02:49:41.531Z,12.96
2023-06-01T02:52:08.104Z,12.94
2023-06-01T02:54:34.627Z,12.99
2023-06-01T02:57:02.607Z,12.97
2023-06-01T02:59:28.968Z,12.87
2023-06-01T03:01:55.557Z,12.72
2023-06-01T03:04:22.076Z,12.71
2023-06-01T03:06:50.452Z,12.70
2023-06-01T03:09:17.085Z,12.69
2023-06-01T03:11:43.595Z,12.67
2023-06-01T03:14:09.998Z,12.58
2023-06-01T03:16:36.438Z,12.55
2023-06-01T03:19:03.111Z,12.62
2023-06-01T03:21:29.752Z,12.62
2023-06-01T03:23:56.185Z,12.62
2023-06-01T03:26:22.725Z,12.70
2023-06-01T03:28:49.208Z,12.66
2023-06-01T03:31:16.748Z,12.66
2023-06-01T03:33:43.279Z,12.62
2023-06-01T03:36:09.982Z,12.57
2023-06-01T03:38:36.442Z,12.53
2023-06-01T03:41:03.073Z,12.49
2023-06-01T03:43:29.757Z,12.50
2023-06-01T03:45:57.298Z,12.52
2023-06-01T03:48:23.758Z,12.54
2023-06-01T03:50:50.386Z,12.60
2023-06-01T03:53:16.748Z,12.68
2023-06-01T03:55:43.199Z,12.70
2023-06-01T03:58:09.577Z,12.73
2023-06-01T04:00:37.003Z,12.77
2023-06-01T04:03:08.162Z,12.73
2023-06-01T04:05:37.221Z,12.77
2023-06-01T04:08:03.777Z,12.78
2023-06-01T04:10:30.610Z,12.64
2023-06-01T04:12:57.070Z,12.74
2023-06-01T04:15:24.028Z,12.76
2023-06-01T04:17:50.702Z,12.78
2023-06-01T04:20:18.240Z,12.83
2023-06-01T04:22:46.563Z,12.83
2023-06-01T04:25:18.469Z,12.81
2023-06-01T04:27:47.088Z,12.83
2023-06-01T04:30:16.349Z,12.77
2023-06-01T04:32:45.223Z,12.76
2023-06-01T04:35:11.851Z,12.74
2023-06-01T04:37:42.422Z,12.64
2023-06-01T04:40:10.730Z,12.66
2023-06-01T04:42:39.849Z,12.68
2023-06-01T04:45:08.932Z,12.61
2023-06-01T04:47:38.777Z,12.55
2023-06-01T04:50:09.384Z,12.47
2023-06-01T04:52:39.756Z,12.55
2023-06-01T04:55:07.176Z,12.63
2023-06-01T04:57:36.521Z,12.64
2023-06-01T05:00:12.227Z,12.66
2023-06-01T05:02:39.876Z,12.71
2023-06-01T05:05:08.600Z,12.76
2023-06-01T05:07:37.567Z,12.69
2023-06-01T05:10:07.038Z,12.68
2023-06-01T05:12:34.269Z,12.69
2023-06-01T05:15:01.781Z,12.77
2023-06-01T05:17:28.269Z,12.81
2023-06-01T05:19:54.752Z,12.80
2023-06-01T05:22:21.169Z,12.83
2023-06-01T05:24:47.771Z,12.89
2023-06-01T05:27:14.303Z,12.91
2023-06-01T05:29:41.156Z,12.92
2023-06-01T05:32:08.205Z,13.01
2023-06-01T05:34:34.637Z,13.00
2023-06-01T05:37:02.380Z,13.01
2023-06-01T05:39:29.372Z,13.00
2023-06-01T05:41:56.560Z,12.97
2023-06-01T05:44:23.228Z,12.95
2023-06-01T05:46:50.499Z,13.03
2023-06-01T05:49:16.894Z,12.92
2023-06-01T05:51:44.124Z,12.92
2023-06-01T05:54:11.123Z,12.92
2023-06-01T05:56:43.497Z,12.90
2023-06-01T05:59:09.883Z,12.87
2023-06-01T06:01:37.470Z,12.92
2023-06-01T06:04:04.365Z,12.95
2023-06-01T06:06:32.765Z,12.97
2023-06-01T06:08:59.613Z,13.01
2023-06-01T06:11:27.092Z,13.01
2023-06-01T06:13:53.594Z,12.96
2023-06-01T06:16:20.205Z,12.99
2023-06-01T06:18:46.656Z,13.01
2023-06-01T06:21:13.050Z,12.98
2023-06-01T06:23:40.891Z,13.03
2023-06-01T06:26:07.919Z,12.90
2023-06-01T06:28:34.398Z,12.99
2023-06-01T06:31:01.173Z,13.08
2023-06-01T06:33:28.519Z,13.16
2023-06-01T06:35:55.418Z,13.22
2023-06-01T06:38:21.932Z,13.26
2023-06-01T06:40:48.570Z,13.30
2023-06-01T06:43:16.121Z,13.30
2023-06-01T06:45:42.872Z,13.23
2023-06-01T06:48:09.524Z,13.25
2023-06-01T06:50:36.606Z,13.32
2023-06-01T06:53:03.106Z,13.28
2023-06-01T06:55:29.507Z,13.25
2023-06-01T06:57:56.210Z,13.27
2023-06-01T07:00:23.316Z,13.34
2023-06-01T07:02:49.845Z,13.43
2023-06-01T07:05:16.589Z,13.47
2023-06-01T07:07:43.221Z,13.49
2023-06-01T07:10:09.816Z,13.55
2023-06-01T07:12:36.476Z,13.57
2023-06-01T07:15:03.638Z,13.73
2023-06-01T07:17:30.045Z,13.83
2023-06-01T07:19:56.930Z,13.85
2023-06-01T07:22:23.210Z,13.86
2023-06-01T07:24:49.657Z,13.88
2023-06-01T07:27:16.144Z,13.82
2023-06-01T07:29:45.505Z,13.85
2023-06-01T07:32:12.134Z,13.79
2023-06-01T07:34:38.674Z,13.85
2023-06-01T07:37:16.389Z,13.89
2023-06-01T07:39:44.489Z,13.96
2023-06-01T07:42:11.076Z,13.98
2023-06-01T07:44:37.840Z,14.02
2023-06-01T07:47:04.367Z,14.07
2023-06-01T07:49:30.851Z,14.09
2023-06-01T07:51:57.808Z,14.17
2023-06-01T07:54:24.240Z,14.24
2023-06-01T07:56:50.925Z,14.37
2023-06-01T07:59:17.442Z,14.37
2023-06-01T08:01:43.924Z,14.40
2023-06-01T08:04:11.675Z,14.33
2023-06-01T08:06:39.140Z,14.30
2023-06-01T08:09:05.609Z,14.26
2023-06-01T08:11:32.138Z,14.39
2023-06-01T08:14:00.982Z,14.46
2023-06-01T08:16:28.064Z,14.42
2023-06-01T08:18:54.577Z,14.46
2023-06-01T08:21:21.378Z,14.51
2023-06-01T08:23:48.556Z,14.55
2023-06-01T08:26:14.984Z,14.63
2023-06-01T08:28:41.823Z,14.71
2023-06-01T08:31:08.876Z,14.84
2023-06-01T08:33:35.664Z,15.02
2023-06-01T08:36:02.260Z,15.06
2023-06-01T08:38:33.368Z,15.07
2023-06-01T08:41:06.540Z,15.27
2023-06-01T08:43:36.843Z,15.33
2023-06-01T08:46:03.712Z,15.23
2023-06-01T08:48:32.483Z,15.09
2023-06-01T08:51:00.766Z,15.05
2023-06-01T08:53:29.351Z,15.12
2023-06-01T08:55:57.566Z,15.11
2023-06-01T08:58:25.258Z,15.11
2023-06-01T09:00:54.553Z,15.25
2023-06-01T09:03:21.294Z,15.52
2023-06-01T09:05:47.866Z,15.39
2023-06-01T09:08:15.293Z,15.40
2023-06-01T09:10:41.766Z,15.64
2023-06-01T09:13:08.302Z,15.90
2023-06-01T09:15:34.804Z,15.74
2023-06-01T09:18:11.797Z,15.67
2023-06-01T09:20:40.080Z,15.65
2023-06-01T09:23:06.577Z,15.66
2023-06-01T09:25:33.972Z,15.62
2023-06-01T09:28:02.827Z,15.64
2023-06-01T09:30:44.052Z,15.85
2023-06-01T09:33:16.411Z,16.09
2023-06-01T09:35:44.323Z,16.16
2023-06-01T09:38:11.633Z,16.17
2023-06-01T09:40:39.665Z,16.37
2023-06-01T09:43:22.809Z,16.33
2023-06-01T09:46:14.942Z,16.22
2023-06-01T09:48:43.207Z,16.32
2023-06-01T09:51:23.706Z,16.28
2023-06-01T09:53:50.143Z,16.27
2023-06-01T09:56:16.515Z,16.33
2023-06-01T09:58:44.452Z,16.52
2023-06-01T10:01:11.145Z,16.76
2023-06-01T10:03:43.727Z,17.01
2023-06-01T10:06:12.350Z,16.90
2023-06-01T10:08:39.267Z,16.88
2023-06-01T10:11:06.373Z,16.95
2023-06-01T10:13:32.814Z,17.10
2023-06-01T10:15:59.362Z,17.09
2023-06-01T10:18:26.136Z,17.25
2023-06-01T10:20:53.130Z,17.24
2023-06-01T10:23:29.657Z,17.32
2023-06-01T10:25:58.592Z,17.35
2023-06-01T10:28:26.763Z,17.47
2023-06-01T10:31:31.018Z,17.45
2023-06-01T10:33:58.940Z,17.46
2023-06-01T10:36:27.251Z,17.58
2023-06-01T10:39:25.554Z,17.78
2023-06-01T10:41:52.458Z,17.70
2023-06-01T10:44:41.065Z,17.68
2023-06-01T10:47:07.953Z,17.68
2023-06-01T10:49:55.229Z,17.96
2023-06-01T10:52:30.644Z,18.02
2023-06-01T10:55:20.007Z,17.80
2023-06-01T10:57:47.653Z,17.94
2023-06-01T11:00:27.802Z,18.12
2023-06-01T11:02:54.927Z,18.24
2023-06-01T11:05:48.461Z,18.33
2023-06-01T11:08:17.879Z,18.12
2023-06-01T11:11:01.062Z,18.02
2023-06-01T11:13:31.326Z,18.07
2023-06-01T11:16:21.379Z,17.86
2023-06-01T11:19:01.939Z,17.88
2023-06-01T11:21:30.049Z,18.04
2023-06-01T11:23:59.260Z,18.02
2023-06-01T11:26:31.642Z,18.30
2023-06-01T11:29:10.697Z,18.43
2023-06-01T11:31:44.996Z,18.33
2023-06-01T11:34:12.852Z,18.36
2023-06-01T11:36:44.444Z,18.51
2023-06-01T11:39:23.158Z,18.66
2023-06-01T11:42:06.161Z,18.63
2023-06-01T11:44:36.726Z,18.72
2023-06-01T11:47:05.275Z,18.78
2023-06-01T11:49:31.683Z,18.63
2023-06-01T11:51:58.641Z,18.58
2023-06-01T11:54:27.602Z,18.71
2023-06-01T11:56:58.133Z,18.75
2023-06-01T11:59:25.447Z,18.50
2023-06-01T12:01:53.409Z,18.49
2023-06-01T12:04:22.938Z,18.31
2023-06-01T12:06:50.204Z,18.19
2023-06-01T12:09:17.890Z,18.04
2023-06-01T12:11:45.519Z,17.97
2023-06-01T12:14:14.633Z,17.63
2023-06-01T12:17:04.141Z,17.41
2023-06-01T12:19:32.910Z,17.44
2023-06-01T12:22:00.070Z,17.38
2023-06-01T12:24:32.179Z,17.37
2023-06-01T12:26:59.813Z,17.23
2023-06-01T12:29:43.293Z,17.07
2023-06-01T12:32:11.781Z,16.98
2023-06-01T12:34:40.272Z,16.99
2023-06-01T12:37:20.056Z,16.99
2023-06-01T12:40:02.002Z,16.99
2023-06-01T12:42:38.615Z,16.92
2023-06-01T12:45:06.990Z,16.96
2023-06-01T12:47:40.826Z,16.89
2023-06-01T12:50:13.303Z,16.84
2023-06-01T12:52:43.182Z,16.73
2023-06-01T12:55:10.363Z,16.70
2023-06-01T12:57:38.979Z,16.67
2023-06-01T13:00:07.341Z,16.72
2023-06-01T13:02:34.759Z,16.69
2023-06-01T13:05:02.163Z,16.72
2023-06-01T13:07:28.556Z,16.75
2023-06-01T13:09:54.921Z,16.67
2023-06-01T13:12:21.572Z,16.61
2023-06-01T13:14:47.924Z,16.60
2023-06-01T13:17:14.373Z,16.52
2023-06-01T13:19:42.079Z,16.54
2023-06-01T13:22:10.883Z,16.63
2023-06-01T13:27:08.174Z,16.63
2023-06-01T13:29:34.597Z,16.62
2023-06-01T13:32:01.085Z,16.59
2023-06-01T13:34:27.592Z,16.41
2023-06-01T13:36:54.021Z,16.37
2023-06-01T13:39:20.450Z,16.35
2023-06-01T13:41:47.601Z,16.29
2023-06-01T13:44:14.055Z,16.31
2023-06-01T13:46:40.707Z,16.32
2023-06-01T13:49:08.010Z,16.37
2023-06-01T13:51:34.725Z,16.40
2023-06-01T13:54:01.592Z,16.39
2023-06-01T13:56:28.093Z,16.44
2023-06-01T13:58:54.561Z,16.47
2023-06-01T14:01:23.543Z,16.54
2023-06-01T14:03:50.632Z,16.61
2023-06-01T14:06:19.300Z,16.43
2023-06-01T14:08:46.183Z,16.42
2023-06-01T14:11:12.554Z,16.43
2023-06-01T14:13:38.942Z,16.50
2023-06-01T14:16:05.768Z,16.51
2023-06-01T14:18:32.552Z,16.48
2023-06-01T14:21:00.763Z,16.51
2023-06-01T14:23:27.208Z,16.47
2023-06-01T14:25:55.935Z,16.41
2023-06-01T14:28:22.384Z,16.28
2023-06-01T14:30:48.941Z,16.18
2023-06-01T14:33:15.527Z,16.20
2023-06-01T14:35:42.071Z,16.20
2023-06-01T14:38:08.522Z,16.16
2023-06-01T14:40:34.927Z,16.11
2023-06-01T14:43:01.266Z,16.01
2023-06-01T14:45:27.939Z,16.11
2023-06-01T14:47:54.466Z,16.18
2023-06-01T14:50:21.027Z,16.29
2023-06-01T14:52:47.460Z,16.31
2023-06-01T14:55:15.429Z,16.34
2023-06-01T14:57:42.166Z,16.36
2023-06-01T15:00:09.794Z,16.29
2023-06-01T15:02:36.284Z,16.25
2023-06-01T15:05:03.034Z,16.14
2023-06-01T15:07:29.304Z,16.16
2023-06-01T15:09:55.956Z,16.12
2023-06-01T15:12:22.367Z,16.08
2023-06-01T15:14:49.394Z,16.10
2023-06-01T15:17:16.004Z,16.02
2023-06-01T15:19:42.517Z,16.00
2023-06-01T15:22:09.150Z,16.00
2023-06-01T15:24:35.635Z,15.98
2023-06-01T15:27:02.089Z,15.94
2023-06-01T15:29:28.499Z,15.82
2023-06-01T15:31:54.876Z,15.83
2023-06-01T15:34:21.392Z,15.88
2023-06-01T15:36:47.832Z,16.00
2023-06-01T15:39:16.287Z,15.95
2023-06-01T15:41:42.943Z,15.80
2023-06-01T15:44:09.456Z,15.81
2023-06-01T15:46:36.100Z,15.90
2023-06-01T15:49:02.577Z,15.93
2023-06-01T15:51:29.032Z,15.90
2023-06-01T15:53:55.423Z,15.90
2023-06-01T15:56:22.796Z,15.86
2023-06-01T15:58:50.923Z,15.89
2023-06-01T16:01:29.276Z,15.83
2023-06-01T16:03:57.891Z,15.84
2023-06-01T16:06:24.577Z,15.72
2023-06-01T16:08:51.001Z,15.75
2023-06-01T16:11:17.555Z,15.77
2023-06-01T16:13:43.906Z,15.74
2023-06-01T16:16:10.424Z,15.74
2023-06-01T16:18:36.958Z,15.70
2023-06-01T16:21:04.084Z,15.73
2023-06-01T16:23:31.140Z,15.74
2023-06-01T16:25:57.619Z,15.71
2023-06-01T16:28:24.061Z,15.77
2023-06-01T16:30:50.444Z,15.84
2023-06-01T16:33:16.909Z,15.92
2023-06-01T16:35:43.352Z,15.90
2023-06-01T16:38:09.746Z,15.90
2023-06-01T16:40:36.227Z,15.81
2023-06-01T16:43:02.642Z,15.70
2023-06-01T16:45:31.457Z,15.63
2023-06-01T16:47:58.604Z,15.64
2023-06-01T16:50:25.069Z,15.62
2023-06-01T16:52:51.610Z,15.62
2023-06-01T16:55:18.100Z,15.54
2023-06-01T16:57:44.562Z,15.41
2023-06-01T17:00:12.340Z,15.36
2023-06-01T17:02:40.078Z,15.38
2023-06-01T17:05:07.126Z,15.35
2023-06-01T17:07:33.533Z,15.33
2023-06-01T17:09:59.990Z,15.27
2023-06-01T17:12:26.662Z,15.23
2023-06-01T17:14:53.163Z,15.23
2023-06-01T17:17:20.955Z,15.18
2023-06-01T17:19:47.741Z,15.17
2023-06-01T17:22:14.327Z,15.17
2023-06-01T17:24:40.844Z,15.13
2023-06-01T17:27:07.975Z,15.09
2023-06-01T17:29:34.571Z,15.02
2023-06-01T17:32:02.193Z,15.01
2023-06-01T17:34:29.321Z,14.90
2023-06-01T17:36:55.903Z,14.86
2023-06-01T17:39:22.554Z,14.85
2023-06-01T17:41:49.705Z,14.86
2023-06-01T17:44:18.796Z,14.84
2023-06-01T17:46:46.101Z,14.84
2023-06-01T17:49:12.745Z,14.85
2023-06-01T17:51:41.302Z,14.81
2023-06-01T17:54:08.781Z,14.80
2023-06-01T17:56:35.612Z,14.77
2023-06-01T17:59:02.354Z,14.75
2023-06-01T18:01:29.281Z,14.66
2023-06-01T18:03:58.949Z,14.68
2023-06-01T18:06:26.285Z,14.61
2023-06-01T18:08:52.820Z,14.60
2023-06-01T18:11:19.302Z,14.57
2023-06-01T18:13:45.846Z,14.59
2023-06-01T18:16:12.471Z,14.61
2023-06-01T18:18:39.069Z,14.62
2023-06-01T18:21:05.795Z,14.57
2023-06-01T18:23:32.312Z,14.56
2023-06-01T18:25:58.787Z,14.39
2023-06-01T18:28:25.276Z,14.44
2023-06-01T18:30:51.704Z,14.48
2023-06-01T18:33:18.626Z,14.36
2023-06-01T18:35:45.091Z,14.37
2023-06-01T18:38:11.507Z,14.30
2023-06-01T18:40:38.016Z,14.19
2023-06-01T18:43:04.774Z,14.14
2023-06-01T18:45:32.851Z,14.15
2023-06-01T18:47:59.660Z,14.22
2023-06-01T18:50:29.727Z,14.23
2023-06-01T18:52:56.101Z,14.26
2023-06-01T18:55:22.606Z,14.28
2023-06-01T18:57:49.215Z,14.19
2023-06-01T19:00:15.876Z,14.14
2023-06-01T19:02:45.952Z,14.10
2023-06-01T19:05:12.354Z,14.08
2023-06-01T19:07:40.193Z,14.06
2023-06-01T19:10:08.016Z,13.98
2023-06-01T19:12:35.008Z,14.00
2023-06-01T19:15:13.336Z,14.02
2023-06-01T19:17:40.737Z,14.03
2023-06-01T19:20:31.550Z,14.00
2023-06-01T19:22:58.207Z,14.02
2023-06-01T19:25:24.643Z,14.02
2023-06-01T19:27:51.086Z,13.99
2023-06-01T19:30:17.505Z,13.96
2023-06-01T19:32:43.958Z,13.96
2023-06-01T19:35:10.964Z,13.96
2023-06-01T19:37:37.304Z,13.96
2023-06-01T19:40:03.854Z,13.84
2023-06-01T19:42:37.094Z,13.79
2023-06-01T19:45:03.821Z,13.83
2023-06-01T19:47:47.008Z,13.86
2023-06-01T19:50:31.584Z,13.81
2023-06-01T19:53:02.646Z,13.89
2023-06-01T19:55:30.970Z,13.86
2023-06-01T19:57:57.919Z,13.87
2023-06-01T20:00:29.134Z,13.87
2023-06-01T20:02:56.893Z,13.83
2023-06-01T20:05:26.020Z,13.75
2023-06-01T20:07:57.312Z,13.74
2023-06-01T20:10:26.386Z,13.66
2023-06-01T20:12:57.448Z,13.57
2023-06-01T20:15:30.016Z,13.58
2023-06-01T20:17:59.871Z,13.58
2023-06-01T20:20:27.723Z,13.51
2023-06-01T20:22:54.322Z,13.51
2023-06-01T20:25:22.142Z,13.46
2023-06-01T20:27:49.372Z,13.43
2023-06-01T20:31:00.988Z,13.43
2023-06-01T20:33:28.550Z,13.31
2023-06-01T20:36:00.854Z,13.32
2023-06-01T20:38:27.404Z,13.30
2023-06-01T20:40:53.857Z,13.32
2023-06-01T20:43:24.985Z,13.33
2023-06-01T20:46:02.817Z,13.32
2023-06-01T20:48:42.881Z,13.25
2023-06-01T20:51:27.163Z,13.28
2023-06-01T20:53:55.139Z,13.30
2023-06-01T20:56:41.726Z,13.33
2023-06-01T20:59:12.675Z,13.36
2023-06-01T21:01:41.929Z,13.32
2023-06-01T21:04:11.979Z,13.37
2023-06-01T21:06:38.985Z,13.28
2023-06-01T21:09:11.491Z,13.23
2023-06-01T21:11:39.081Z,13.26
2023-06-01T21:14:05.675Z,13.25
2023-06-01T21:16:32.630Z,13.20
2023-06-01T21:18:59.007Z,13.15
2023-06-01T21:21:25.566Z,13.16
2023-06-01T21:23:54.770Z,13.16
2023-06-01T21:26:25.170Z,13.22
2023-06-01T21:28:51.662Z,13.17
2023-06-01T21:31:18.777Z,13.12
2023-06-01T21:33:46.312Z,13.18
2023-06-01T21:36:13.831Z,13.21
2023-06-01T21:38:40.951Z,13.19
2023-06-01T21:41:07.535Z,13.17
2023-06-01T21:43:34.008Z,13.12
2023-06-01T21:46:01.178Z,13.16
2023-06-01T21:48:28.812Z,13.18
2023-06-01T21:50:55.371Z,13.17
2023-06-01T21:53:22.912Z,13.12
2023-06-01T21:55:50.499Z,13.11
2023-06-01T21:58:19.466Z,13.06
2023-06-01T22:00:48.119Z,13.07
2023-06-01T22:03:17.823Z,13.04
2023-06-01T22:05:44.603Z,12.99
2023-06-01T22:08:11.088Z,12.97
2023-06-01T22:10:37.510Z,12.93
2023-06-01T22:13:04.689Z,12.88
2023-06-01T22:15:31.840Z,12.87
2023-06-01T22:17:58.842Z,12.78
2023-06-01T22:20:25.765Z,12.83
2023-06-01T22:22:52.354Z,12.77
2023-06-01T22:25:18.856Z,12.78
2023-06-01T22:27:45.435Z,12.80
2023-06-01T22:30:12.231Z,12.82
2023-06-01T22:32:38.806Z,12.85
2023-06-01T22:35:06.325Z,12.82
2023-06-01T22:37:32.835Z,12.83
2023-06-01T22:39:59.350Z,12.82
2023-06-01T22:42:26.351Z,12.87
2023-06-01T22:44:52.781Z,12.90
2023-06-01T22:47:19.394Z,12.93
2023-06-01T22:49:45.833Z,12.93
2023-06-01T22:52:14.062Z,12.92
2023-06-01T22:54:41.513Z,12.90
2023-06-01T22:57:08.734Z,12.84
2023-06-01T22:59:35.895Z,12.84
2023-06-01T23:02:02.520Z,12.83
2023-06-01T23:04:29.973Z,12.87
2023-06-01T23:06:56.429Z,12.86
2023-06-01T23:09:26.074Z,12.82
2023-06-01T23:11:52.938Z,12.82
2023-06-01T23:14:30.093Z,12.85
2023-06-01T23:17:01.500Z,12.85
2023-06-01T23:19:32.807Z,12.88
2023-06-01T23:22:06.631Z,12.84
2023-06-01T23:24:33.502Z,12.84
2023-06-01T23:27:01.394Z,12.86
2023-06-01T23:29:28.914Z,12.85
2023-06-01T23:31:56.241Z,12.84
2023-06-01T23:34:22.874Z,12.85
2023-06-01T23:36:54.206Z,12.84
2023-06-01T23:39:24.195Z,12.84
2023-06-01T23:41:50.770Z,12.82
2023-06-01T23:44:17.511Z,12.82
2023-06-01T23:46:45.938Z,12.84
2023-06-01T23:49:12.807Z,12.82
2023-06-01T23:51:39.523Z,12.76
2023-06-01T23:54:06.072Z,12.68
2023-06-01T23:56:32.623Z,12.68
2023-06-01T23:58:59.062Z,12.67
